Terminal Aerodrome Forecast
Issued by NWS

Home | Current Version | Previous Version | Text Only | Print | Product List | Glossary On
Versions: 1 2 3 4 5 6 7 8 9 10 11 12
342
FTUS43 KEAX 081120
TAFSTJ
TAF
KSTJ 081120Z 0812/0912 32014KT P6SM SKC
      TEMPO 0814/0817 32014G21KT
     FM082300 32006KT P6SM SKC=

USA.gov is the U.S. government's official web portal to all federal, state and local government web resources and services.